Time;durP1;ratioP1;P1;durP2;ratioP2;P2;SDS_P1;SDS_P2;PMS_P1;PMS_P2;Temp;Humidity;BMP_temperature;BMP_pressure;BME280_temperature;BME280_humidity;BME280_pressure;Samples;Min_cycle;Max_cycle;Signal;HPM_P1;HPM_P2
2023/09/22 00:02:09;;;;;;;0.10;0.10;;;;;;;16.02;100.00;97678.13;5136405;27;20259;-56
2023/09/22 00:04:57;;;;;;;0.10;0.10;;;;;;;16.08;100.00;97670.41;5135563;27;20192;-56
2023/09/22 00:07:45;;;;;;;0.10;0.10;;;;;;;16.11;100.00;97676.25;5136246;27;20197;-56
2023/09/22 00:10:32;;;;;;;0.00;0.00;;;;;;;16.05;100.00;97666.25;5136105;27;20296;-57
2023/09/22 00:13:19;;;;;;;0.10;0.10;;;;;;;16.23;100.00;97663.38;5134681;27;20251;-56
2023/09/22 00:16:06;;;;;;;0.10;0.10;;;;;;;16.19;100.00;97673.56;5135864;27;20185;-56
2023/09/22 00:18:53;;;;;;;0.10;0.10;;;;;;;16.18;100.00;97677.22;5136193;27;20190;-56
2023/09/22 00:21:41;;;;;;;0.10;0.10;;;;;;;16.17;100.00;97683.59;5136039;27;20189;-56
2023/09/22 00:24:30;;;;;;;0.10;0.10;;;;;;;16.20;100.00;97690.41;5135470;27;20263;-56
2023/09/22 00:27:16;;;;;;;0.10;0.10;;;;;;;16.11;100.00;97694.09;5134714;27;20193;-56
2023/09/22 00:30:05;;;;;;;0.10;0.10;;;;;;;16.15;100.00;97709.63;5120348;27;20225;-56
2023/09/22 00:32:52;;;;;;;0.10;0.10;;;;;;;16.03;100.00;97705.66;5135592;27;20214;-56
2023/09/22 00:35:39;;;;;;;0.10;0.10;;;;;;;16.13;100.00;97706.31;5135721;27;20197;-56
2023/09/22 00:38:26;;;;;;;0.10;0.10;;;;;;;16.17;100.00;97704.97;5120213;27;20194;-56
2023/09/22 00:41:14;;;;;;;0.10;0.10;;;;;;;16.24;100.00;97716.66;5134660;27;20373;-57
2023/09/22 00:44:02;;;;;;;0.10;0.10;;;;;;;16.06;100.00;97721.34;5135695;27;20190;-56
2023/09/22 00:46:50;;;;;;;0.10;0.10;;;;;;;16.23;100.00;97733.69;5120097;27;20190;-56
2023/09/22 00:49:37;;;;;;;0.10;0.10;;;;;;;16.05;100.00;97722.34;5119715;27;20193;-57
2023/09/22 00:52:27;;;;;;;0.10;0.10;;;;;;;15.99;100.00;97723.84;5135464;27;20197;-57
2023/09/22 00:55:14;;;;;;;0.10;0.10;;;;;;;16.06;100.00;97734.69;5135326;27;20194;-56
2023/09/22 00:58:02;;;;;;;0.10;0.10;;;;;;;16.20;100.00;97742.00;5133801;27;20222;-56
2023/09/22 01:00:49;;;;;;;0.10;0.10;;;;;;;16.06;100.00;97740.03;5135094;27;20196;-56
2023/09/22 01:03:36;;;;;;;0.10;0.10;;;;;;;15.97;100.00;97738.38;5119531;27;20825;-56
2023/09/22 01:06:24;;;;;;;0.10;0.10;;;;;;;16.12;100.00;97744.72;5135027;27;20280;-56
2023/09/22 01:09:14;;;;;;;0.10;0.10;;;;;;;16.09;100.00;97731.66;5135135;27;20287;-57
2023/09/22 01:12:01;;;;;;;0.10;0.10;;;;;;;16.10;100.00;97717.31;5133635;27;20213;-56
2023/09/22 01:14:49;;;;;;;0.10;0.10;;;;;;;16.01;100.00;97712.97;5134833;27;20193;-57
2023/09/22 01:17:36;;;;;;;0.00;0.00;;;;;;;16.11;100.00;97702.13;5134945;27;20702;-57
2023/09/22 01:20:23;;;;;;;0.10;0.10;;;;;;;16.05;100.00;97713.50;5134873;27;20202;-56
2023/09/22 01:23:13;;;;;;;0.10;0.10;;;;;;;15.92;100.00;126328.16;5134680;27;20291;-56
2023/09/22 01:26:00;;;;;;;0.10;0.10;;;;;;;15.88;100.00;97729.50;5134693;27;20267;-56
2023/09/22 01:28:47;;;;;;;0.10;0.10;;;;;;;15.78;100.00;97730.69;5119127;27;20667;-56
2023/09/22 01:31:35;;;;;;;0.10;0.10;;;;;;;15.93;100.00;97732.53;5134706;27;20713;-56
2023/09/22 01:34:23;;;;;;;0.10;0.10;;;;;;;15.92;100.00;97732.66;5134294;27;20347;-56
2023/09/22 01:37:09;;;;;;;0.10;0.10;;;;;;;15.70;100.00;97740.34;5134673;27;20193;-56
2023/09/22 01:39:59;;;;;;;0.10;0.10;;;;;;;15.69;100.00;97728.00;5134536;27;20247;-56
2023/09/22 01:42:46;;;;;;;0.10;0.10;;;;;;;15.66;100.00;97717.66;5133094;27;20198;-56
2023/09/22 01:45:32;;;;;;;0.03;0.03;;;;;;;15.57;100.00;97712.44;5118839;27;20220;-57
2023/09/22 01:48:19;;;;;;;0.10;0.10;;;;;;;15.67;100.00;97703.31;5134367;27;20679;-57
2023/09/22 01:51:06;;;;;;;0.10;0.10;;;;;;;15.85;100.00;97723.69;5134411;27;20201;-56
2023/09/22 01:53:55;;;;;;;0.10;0.10;;;;;;;15.85;100.00;97713.84;5134099;27;20223;-56
2023/09/22 01:56:43;;;;;;;0.10;0.10;;;;;;;15.81;100.00;97698.31;5132897;27;20193;-57
2023/09/22 01:59:30;;;;;;;0.10;0.10;;;;;;;15.93;100.00;97702.31;5118724;27;20194;-56
2023/09/22 02:02:17;;;;;;;0.10;0.10;;;;;;;15.81;100.00;97714.31;5118586;27;20201;-56
2023/09/22 02:05:04;;;;;;;0.10;0.10;;;;;;;15.68;100.00;97712.16;5134089;27;20291;-56
2023/09/22 02:07:51;;;;;;;0.10;0.10;;;;;;;15.67;100.00;97716.66;5134114;27;20560;-56
2023/09/22 02:10:38;;;;;;;0.10;0.10;;;;;;;15.71;100.00;97709.97;5134012;27;20209;-57
2023/09/22 02:13:27;;;;;;;0.10;0.10;;;;;;;15.63;100.00;97712.66;5132595;27;20688;-56
2023/09/22 02:16:13;;;;;;;0.10;0.10;;;;;;;15.62;100.00;97710.97;5133938;27;20189;-56
2023/09/22 02:19:00;;;;;;;0.10;0.10;;;;;;;15.47;100.00;97712.59;5118356;27;20246;-56
2023/09/22 02:21:47;;;;;;;0.10;0.10;;;;;;;15.52;100.00;97715.59;5133874;27;20213;-56
2023/09/22 02:24:34;;;;;;;0.10;0.10;;;;;;;15.40;100.00;97708.91;5133647;28;20221;-57
2023/09/22 02:27:21;;;;;;;0.10;0.10;;;;;;;15.45;100.00;97718.13;5132571;28;20194;-56
2023/09/22 02:30:10;;;;;;;0.10;0.10;;;;;;;15.37;100.00;97704.75;5140704;27;20242;-56
2023/09/22 02:32:57;;;;;;;0.10;0.10;;;;;;;15.24;100.00;97711.53;5140629;27;20197;-57
2023/09/22 02:35:44;;;;;;;0.10;0.10;;;;;;;15.13;100.00;97697.53;5124748;27;20197;-56
2023/09/22 02:38:31;;;;;;;0.10;0.10;;;;;;;15.25;100.00;97695.41;5140593;27;20201;-56
2023/09/22 02:41:19;;;;;;;0.10;0.10;;;;;;;15.43;100.00;97717.41;5123751;27;20647;-56
2023/09/22 02:44:08;;;;;;;0.10;0.10;;;;;;;15.69;100.00;97724.50;5140425;27;20216;-56
2023/09/22 02:46:56;;;;;;;0.10;0.10;;;;;;;15.66;100.00;97720.34;5124884;27;20185;-56
2023/09/22 02:49:44;;;;;;;0.10;0.10;;;;;;;15.42;100.00;97712.25;5140433;27;20272;-56
2023/09/22 02:52:31;;;;;;;0.10;0.10;;;;;;;15.45;100.00;97694.09;5140186;27;20638;-56
2023/09/22 02:55:18;;;;;;;0.10;0.10;;;;;;;15.49;100.00;97701.75;5140233;27;20209;-56
2023/09/22 02:58:05;;;;;;;0.10;0.10;;;;;;;15.52;100.00;97699.59;5123440;27;20186;-56
2023/09/22 03:00:52;;;;;;;0.10;0.10;;;;;;;15.23;100.00;97697.38;5140182;27;20189;-56
2023/09/22 03:03:42;;;;;;;0.10;0.10;;;;;;;15.26;100.00;97690.91;5124806;27;20185;-56
2023/09/22 03:06:30;;;;;;;0.10;0.10;;;;;;;15.14;100.00;97709.84;5124347;27;20197;-56
2023/09/22 03:09:17;;;;;;;0.10;0.10;;;;;;;14.94;100.00;97702.28;5140199;27;20186;-56
2023/09/22 03:12:04;;;;;;;0.10;0.10;;;;;;;14.84;100.00;97694.44;5123326;27;20193;-56
2023/09/22 03:14:52;;;;;;;0.10;0.10;;;;;;;14.91;100.00;97703.47;5124538;27;20221;-56
2023/09/22 03:17:39;;;;;;;0.10;0.10;;;;;;;15.27;100.00;97698.72;5140196;27;20197;-57
2023/09/22 03:20:28;;;;;;;0.10;0.10;;;;;;;15.21;100.00;97675.38;5124867;27;20189;-56
2023/09/22 03:23:16;;;;;;;0.10;0.10;;;;;;;15.14;100.00;97682.34;5140054;27;20286;-56
2023/09/22 03:26:04;;;;;;;0.10;0.10;;;;;;;15.00;100.00;97672.31;5124224;27;20284;-56
2023/09/22 03:28:52;;;;;;;0.10;0.10;;;;;;;15.02;100.00;97665.00;5140261;27;20194;-56
2023/09/22 03:31:39;;;;;;;0.10;0.10;;;;;;;14.96;100.00;97670.97;5140153;27;20236;-56
2023/09/22 03:34:27;;;;;;;0.10;0.10;;;;;;;15.02;100.00;97673.81;5124263;27;20286;-57
2023/09/22 03:37:17;;;;;;;0.10;0.10;;;;;;;14.94;100.00;97703.13;5139738;27;20546;-56
2023/09/22 03:40:10;;;;;;;0.10;0.10;;;;;;;14.94;100.00;97703.13;5121841;27;20198;-56
2023/09/22 03:42:57;;;;;;;0.10;0.10;;;;;;;14.95;100.00;97735.94;5135572;27;20189;-56
2023/09/22 03:45:44;;;;;;;0.10;0.10;;;;;;;14.74;100.00;97734.53;5136795;27;20185;-56
2023/09/22 03:48:31;;;;;;;0.10;0.10;;;;;;;14.91;100.00;97737.28;5121233;27;20201;-56
2023/09/22 03:51:18;;;;;;;0.10;0.10;;;;;;;14.79;100.00;97705.59;5136637;27;20201;-56
2023/09/22 03:54:08;;;;;;;0.10;0.10;;;;;;;14.76;100.00;97703.22;5120769;27;20695;-56
2023/09/22 03:56:54;;;;;;;0.10;0.10;;;;;;;14.59;100.00;97702.34;5119240;27;20197;-56
2023/09/22 03:59:41;;;;;;;0.10;0.10;;;;;;;14.73;100.00;97706.22;5136552;27;20193;-56
2023/09/22 04:02:29;;;;;;;0.10;0.10;;;;;;;14.73;100.00;97700.06;5136416;27;20276;-56
2023/09/22 04:05:17;;;;;;;0.10;0.10;;;;;;;14.39;100.00;97719.50;5120821;27;20365;-56
2023/09/22 04:08:05;;;;;;;0.10;0.10;;;;;;;14.54;100.00;97720.59;5136335;27;20334;-56
2023/09/22 04:10:53;;;;;;;0.10;0.10;;;;;;;14.51;100.00;97710.28;5136099;27;20194;-57
2023/09/22 04:13:40;;;;;;;0.10;0.10;;;;;;;14.32;100.00;97711.31;5120643;27;20227;-56
2023/09/22 04:16:27;;;;;;;0.10;0.10;;;;;;;14.50;100.00;97721.09;5120574;27;20201;-56
2023/09/22 04:19:14;;;;;;;0.10;0.10;;;;;;;14.56;100.00;97713.28;5136173;27;20186;-57
2023/09/22 04:22:01;;;;;;;0.10;0.10;;;;;;;14.56;100.00;-17770.50;5136133;27;20308;-56
2023/09/22 04:24:50;;;;;;;0.10;0.10;;;;;;;14.38;100.00;97739.16;5136083;27;20197;-56
2023/09/22 04:27:43;;;;;;;0.10;0.10;;;;;;;14.67;100.00;97748.66;5134551;27;20342;-56
2023/09/22 04:30:30;;;;;;;0.13;0.13;;;;;;;14.52;100.00;97756.41;5135851;27;20197;-56
2023/09/22 04:33:17;;;;;;;0.10;0.10;;;;;;;14.51;100.00;97765.41;5135918;27;20224;-56
2023/09/22 04:36:04;;;;;;;0.10;0.10;;;;;;;14.24;100.00;97761.00;5135495;27;20213;-56
2023/09/22 04:38:51;;;;;;;0.10;0.10;;;;;;;14.20;100.00;97770.31;5135692;27;20283;-56
2023/09/22 04:41:39;;;;;;;0.10;0.10;;;;;;;14.35;100.00;97791.88;5134325;27;20186;-56
2023/09/22 04:44:27;;;;;;;0.10;0.10;;;;;;;14.32;100.00;97793.03;5135445;27;20251;-56
2023/09/22 04:47:14;;;;;;;0.10;0.10;;;;;;;14.42;100.00;97799.09;5135156;27;20201;-56
2023/09/22 04:50:01;;;;;;;0.10;0.10;;;;;;;14.46;100.00;97800.47;5135546;27;20304;-58
2023/09/22 04:52:49;;;;;;;0.10;0.10;;;;;;;14.41;100.00;97808.09;5135205;27;20197;-58
2023/09/22 04:55:36;;;;;;;0.10;0.10;;;;;;;14.43;100.00;97800.78;5135025;27;20315;-58
2023/09/22 04:58:23;;;;;;;0.10;0.10;;;;;;;14.12;100.00;97812.84;5134047;27;20251;-59
2023/09/22 05:01:11;;;;;;;0.10;0.10;;;;;;;14.20;100.00;97812.94;5135239;27;20196;-58
2023/09/22 05:03:58;;;;;;;0.10;0.10;;;;;;;14.16;100.00;97817.72;5119607;27;20189;-58
2023/09/22 05:06:45;;;;;;;0.10;0.10;;;;;;;14.21;100.00;97830.56;5135202;27;20185;-59
2023/09/22 05:09:32;;;;;;;0.10;0.10;;;;;;;13.99;100.00;97831.84;5135119;27;20214;-58
2023/09/22 05:12:18;;;;;;;0.10;0.10;;;;;;;14.07;100.00;97831.94;5133583;27;20311;-58
2023/09/22 05:15:06;;;;;;;0.10;0.10;;;;;;;14.07;100.00;97828.44;5134916;27;20208;-58
2023/09/22 05:17:55;;;;;;;0.10;0.10;;;;;;;14.07;100.00;97815.97;5134975;27;20197;-58
2023/09/22 05:20:42;;;;;;;0.10;0.10;;;;;;;13.90;100.00;97812.34;5134660;27;20675;-58
2023/09/22 05:23:29;;;;;;;0.10;0.10;;;;;;;14.07;100.00;97815.13;5134569;27;20214;-58
2023/09/22 05:26:16;;;;;;;0.10;0.10;;;;;;;13.91;100.00;97813.19;5133505;27;20200;-58
2023/09/22 05:29:04;;;;;;;0.10;0.10;;;;;;;13.97;100.00;97812.53;5134503;27;20676;-58
2023/09/22 05:31:51;;;;;;;0.10;0.10;;;;;;;14.03;100.00;97810.13;5134596;27;20209;-58
2023/09/22 05:34:40;;;;;;;0.10;0.10;;;;;;;14.29;100.00;97812.84;5134515;27;20193;-58
2023/09/22 05:37:27;;;;;;;0.10;0.10;;;;;;;14.42;100.00;97827.56;5134301;27;20281;-58
2023/09/22 05:40:15;;;;;;;0.10;0.10;;;;;;;14.03;100.00;97823.44;5134652;27;20213;-58
2023/09/22 05:43:04;;;;;;;0.10;0.10;;;;;;;13.95;100.00;97823.34;5132812;27;20196;-58
2023/09/22 05:45:54;;;;;;;0.10;0.10;;;;;;;13.81;100.00;97831.03;5134349;27;20194;-58
2023/09/22 05:48:41;;;;;;;0.10;0.10;;;;;;;13.87;100.00;97825.94;5134408;27;20205;-58
2023/09/22 05:51:32;;;;;;;0.10;0.10;;;;;;;13.87;100.00;97817.94;5133954;27;20187;-58
2023/09/22 05:54:19;;;;;;;0.10;0.10;;;;;;;13.93;100.00;97820.00;5134203;27;20204;-58
2023/09/22 05:57:06;;;;;;;0.10;0.10;;;;;;;14.14;100.00;97840.16;5132123;27;20193;-58
2023/09/22 05:59:53;;;;;;;0.10;0.10;;;;;;;14.13;0.00;54339.88;5132635;27;20197;-58
2023/09/22 06:02:40;;;;;;;0.10;0.10;;;;;;;14.12;100.00;97869.59;5133407;27;20239;-58
2023/09/22 06:05:28;;;;;;;0.10;0.10;;;;;;;14.00;100.00;97866.34;5134048;27;20194;-58
2023/09/22 06:08:16;;;;;;;0.10;0.10;;;;;;;14.09;100.00;97869.91;5134179;27;20197;-59
2023/09/22 06:11:03;;;;;;;0.10;0.10;;;;;;;14.06;100.00;97896.81;5133092;27;20714;-58
2023/09/22 06:13:50;;;;;;;0.10;0.10;;;;;;;14.16;100.00;97886.09;5134118;27;20200;-58
2023/09/22 06:16:37;;;;;;;0.10;0.10;;;;;;;14.36;100.00;97887.63;5133616;27;20275;-58
2023/09/22 06:19:24;;;;;;;0.10;0.10;;;;;;;14.43;100.00;97886.03;5133993;27;20201;-58
2023/09/22 06:22:11;;;;;;;0.10;0.10;;;;;;;14.42;100.00;97886.19;5133959;27;20194;-58
2023/09/22 06:24:59;;;;;;;0.10;0.10;;;;;;;14.45;100.00;97875.25;5117835;28;20547;-58
2023/09/22 06:27:46;;;;;;;0.10;0.10;;;;;;;14.35;100.00;97861.97;5132233;28;20239;-58
2023/09/22 06:30:36;;;;;;;0.10;0.10;;;;;;;14.54;100.00;97861.81;5133814;28;20198;-58
2023/09/22 06:33:23;;;;;;;0.10;0.10;;;;;;;14.75;100.00;97855.31;5133747;28;20233;-58
2023/09/22 06:36:11;;;;;;;0.10;0.10;;;;;;;14.99;100.00;97847.47;5133624;28;20209;-58
2023/09/22 06:38:58;;;;;;;0.10;0.10;;;;;;;15.20;100.00;97836.41;5133847;28;20185;-59
2023/09/22 06:41:46;;;;;;;0.10;0.10;;;;;;;15.15;100.00;97846.69;5132315;28;20185;-58
2023/09/22 06:44:36;;;;;;;0.10;0.10;;;;;;;15.20;100.00;97840.91;5118071;28;20197;-58
2023/09/22 06:47:24;;;;;;;0.10;0.10;;;;;;;15.29;100.00;97832.78;5133602;28;20197;-56
2023/09/22 06:50:11;;;;;;;0.10;0.10;;;;;;;15.56;100.00;97826.38;5133621;28;20193;-56
2023/09/22 06:52:59;;;;;;;0.10;0.10;;;;;;;15.56;100.00;97847.72;5117965;28;20190;-56
2023/09/22 06:55:48;;;;;;;0.10;0.10;;;;;;;15.51;100.00;97846.53;5133478;28;20221;-56
2023/09/22 06:58:37;;;;;;;0.10;0.10;;;;;;;15.44;100.00;-17463.00;5133425;28;20261;-56
2023/09/22 07:01:24;;;;;;;0.10;0.10;;;;;;;15.62;100.00;97872.94;5133471;28;20197;-56
2023/09/22 07:04:13;;;;;;;0.10;0.10;;;;;;;15.60;100.00;97886.47;5133534;28;20196;-57
2023/09/22 07:07:01;;;;;;;0.10;0.10;;;;;;;15.74;100.00;97875.19;5133432;28;20239;-56
2023/09/22 07:09:48;;;;;;;0.10;0.10;;;;;;;15.44;100.00;97867.66;5133521;28;20193;-56
2023/09/22 07:12:36;;;;;;;0.10;0.10;;;;;;;15.56;100.00;97868.25;5132195;28;20212;-56
2023/09/22 07:15:24;;;;;;;0.10;0.10;;;;;;;15.70;100.00;97876.47;5135640;27;20263;-56
2023/09/22 07:18:11;;;;;;;0.00;0.00;;;;;;;16.03;100.00;97882.75;5137310;27;20206;-56
2023/09/22 07:20:58;;;;;;;0.00;0.00;;;;;;;15.94;100.00;97888.25;5137370;27;20218;-56
2023/09/22 07:23:45;;;;;;;0.10;0.10;;;;;;;16.17;100.00;97889.28;5136623;27;20221;-56
2023/09/22 07:26:32;;;;;;;0.10;0.10;;;;;;;16.55;100.00;97881.63;5134465;27;20201;-56
2023/09/22 07:29:19;;;;;;;0.10;0.10;;;;;;;16.38;100.00;97901.34;5136046;27;20922;-56
2023/09/22 07:32:07;;;;;;;0.10;0.10;;;;;;;15.89;100.00;97914.59;5136772;27;20204;-56
2023/09/22 07:34:54;;;;;;;0.10;0.10;;;;;;;15.60;100.00;97906.94;5136902;27;20190;-56
2023/09/22 07:37:45;;;;;;;0.10;0.10;;;;;;;15.67;100.00;97914.19;5136649;27;20262;-56
2023/09/22 07:40:32;;;;;;;0.10;0.10;;;;;;;15.78;100.00;97905.06;5136648;27;20198;-56
2023/09/22 07:43:19;;;;;;;0.00;0.00;;;;;;;15.60;100.00;97897.13;5135492;27;20197;-56
2023/09/22 07:46:07;;;;;;;0.10;0.10;;;;;;;15.64;100.00;97895.84;5136820;27;20190;-56
2023/09/22 07:48:56;;;;;;;0.07;0.07;;;;;;;15.53;100.00;97912.09;5136540;27;20304;-56
2023/09/22 07:51:43;;;;;;;0.10;0.10;;;;;;;15.67;100.00;97930.22;5121124;27;20320;-56
2023/09/22 07:54:31;;;;;;;0.10;0.10;;;;;;;15.65;100.00;97931.38;5136728;27;20192;-56
2023/09/22 07:57:18;;;;;;;0.07;0.07;;;;;;;15.70;100.00;97921.03;5135096;27;20251;-56
2023/09/22 08:00:09;;;;;;;0.00;0.00;;;;;;;15.86;100.00;97925.59;5136553;27;20193;-56
2023/09/22 08:03:00;;;;;;;0.00;0.00;;;;;;;15.69;100.00;97917.53;5136540;27;20193;-56
2023/09/22 08:05:49;;;;;;;0.10;0.10;;;;;;;15.86;100.00;97920.28;5136431;27;20699;-56
2023/09/22 08:08:36;;;;;;;0.00;0.00;;;;;;;15.85;100.00;97915.94;5135710;27;20198;-56
2023/09/22 08:11:25;;;;;;;0.10;0.10;;;;;;;15.83;100.00;97921.44;5133337;27;20262;-55
2023/09/22 08:14:12;;;;;;;0.10;0.10;;;;;;;15.79;100.00;97928.06;5135285;27;20201;-56
2023/09/22 08:16:59;;;;;;;0.10;0.10;;;;;;;15.90;100.00;97922.44;5135677;27;20225;-56
2023/09/22 08:19:46;;;;;;;0.10;0.10;;;;;;;15.94;100.00;97917.63;5134915;27;20574;-56
2023/09/22 08:22:35;;;;;;;0.10;0.10;;;;;;;16.04;100.00;97912.97;5135754;27;20193;-56
2023/09/22 08:25:21;;;;;;;0.10;0.10;;;;;;;16.64;100.00;97898.50;5135990;27;20193;-56
2023/09/22 08:28:12;;;;;;;0.10;0.10;;;;;;;16.60;100.00;97898.03;5134496;27;20188;-56
2023/09/22 08:31:00;;;;;;;0.10;0.10;;;;;;;153.73;100.00;83607.25;5135976;27;20231;-56
2023/09/22 08:33:46;;;;;;;0.10;0.10;;;;;;;16.51;100.00;97923.91;5135789;27;20194;-56
2023/09/22 08:36:34;;;;;;;0.10;0.10;;;;;;;16.42;100.00;97914.22;5135643;27;20213;-56
2023/09/22 08:39:22;;;;;;;0.10;0.10;;;;;;;16.84;100.00;97897.19;5135867;27;20263;-56
2023/09/22 08:42:09;;;;;;;0.10;0.10;;;;;;;16.78;100.00;97888.00;5134498;27;20201;-56
2023/09/22 08:44:56;;;;;;;0.10;0.10;;;;;;;17.15;100.00;97890.09;5135574;27;20185;-56
2023/09/22 08:47:45;;;;;;;0.00;0.00;;;;;;;17.51;100.00;97878.13;5135516;27;20227;-55
2023/09/22 08:50:32;;;;;;;0.10;0.10;;;;;;;17.50;100.00;97871.13;5135518;27;20194;-56
2023/09/22 08:53:19;;;;;;;0.10;0.10;;;;;;;17.76;100.00;97866.34;5135367;27;20189;-56
2023/09/22 08:56:07;;;;;;;0.10;0.10;;;;;;;18.05;100.00;97851.41;5133937;27;20193;-56
2023/09/22 08:58:54;;;;;;;0.10;0.10;;;;;;;17.91;100.00;97853.03;5135376;27;20259;-56
2023/09/22 09:01:41;;;;;;;0.10;0.10;;;;;;;17.70;100.00;97840.25;5135252;27;20323;-56
2023/09/22 09:04:33;;;;;;;0.00;0.00;;;;;;;18.08;100.00;97854.59;5135281;27;20196;-56
2023/09/22 09:07:23;;;;;;;0.10;0.10;;;;;;;17.73;100.00;97872.88;5135224;27;20190;-56
2023/09/22 09:10:10;;;;;;;0.10;0.10;;;;;;;17.60;100.00;97859.19;5134997;27;20295;-56
2023/09/22 09:13:02;;;;;;;0.10;0.10;;;;;;;17.53;100.00;97855.53;5133559;27;20201;-56
2023/09/22 09:15:53;;;;;;;0.10;0.10;;;;;;;17.78;100.00;123346.69;5134915;27;20761;-55
2023/09/22 09:18:40;;;;;;;0.10;0.10;;;;;;;18.01;100.00;97865.16;5134436;27;20310;-56
2023/09/22 09:21:27;;;;;;;0.10;0.10;;;;;;;18.10;100.00;97854.41;5134177;27;20741;-56
2023/09/22 09:24:23;;;;;;;0.10;0.10;;;;;;;18.20;100.00;97861.19;5133502;27;20240;-56
2023/09/22 09:27:21;;;;;;;0.10;0.10;;;;;;;17.97;100.00;97847.78;5131893;27;20307;-56
2023/09/22 09:30:11;;;;;;;0.00;0.00;;;;;;;18.17;100.00;97845.47;5133394;27;20196;-56
2023/09/22 09:33:09;;;;;;;0.10;0.10;;;;;;;18.11;100.00;97851.53;5133393;27;20198;-58
2023/09/22 09:35:57;;;;;;;0.00;0.00;;;;;;;18.18;100.00;97849.00;5134671;27;20197;-58
2023/09/22 09:38:44;;;;;;;0.10;0.10;;;;;;;18.43;100.00;97841.59;5131980;27;20255;-58
2023/09/22 09:41:32;;;;;;;0.00;0.00;;;;;;;19.43;100.00;97848.31;5131993;27;20193;-58
2023/09/22 09:44:20;;;;;;;0.10;0.10;;;;;;;19.78;100.00;97843.19;5134339;27;20210;-57
2023/09/22 09:47:11;;;;;;;0.10;0.10;;;;;;;20.07;100.00;97833.38;5134475;27;20182;-58
2023/09/22 09:49:59;;;;;;;0.10;0.10;;;;;;;19.78;100.00;97834.28;5133274;27;20196;-58
2023/09/22 09:52:55;;;;;;;0.10;0.10;;;;;;;20.60;100.00;97842.81;5132695;27;20201;-58
2023/09/22 09:55:43;;;;;;;0.00;0.00;;;;;;;20.63;100.00;97834.34;5133962;27;20259;-58
2023/09/22 09:58:32;;;;;;;0.10;0.10;;;;;;;20.48;100.00;97842.50;5133260;27;20221;-59
2023/09/22 10:01:20;;;;;;;0.10;0.10;;;;;;;19.98;100.00;97848.81;5133300;27;20201;-58
2023/09/22 10:04:11;;;;;;;0.10;0.10;;;;;;;20.76;100.00;97839.03;5134134;27;20200;-58
2023/09/22 10:07:00;;;;;;;0.10;0.10;;;;;;;20.42;100.00;97842.41;5134096;27;20323;-58
2023/09/22 10:09:47;;;;;;;0.10;0.10;;;;;;;19.74;100.00;97836.53;5134185;27;20235;-58
2023/09/22 10:12:34;;;;;;;0.10;0.10;;;;;;;19.17;100.00;97845.25;5131984;27;20196;-56
2023/09/22 10:15:51;;;;;;;0.10;0.10;;;;;;;19.44;100.00;97841.09;5133384;27;20193;-56
2023/09/22 10:18:49;;;;;;;0.10;0.10;;;;;;;19.96;100.00;97835.53;5133811;27;20210;-56
2023/09/22 10:21:45;;;;;;;0.00;0.00;;;;;;;22.06;100.00;84423.03;5133767;27;20198;-56
2023/09/22 10:24:37;;;;;;;0.10;0.10;;;;;;;22.80;94.23;97832.78;5133485;27;20225;-56
2023/09/22 10:27:26;;;;;;;0.10;0.10;;;;;;;23.11;90.70;97837.53;5132159;27;20193;-56
2023/09/22 10:30:13;;;;;;;0.10;0.10;;;;;;;24.41;73.88;97840.97;5133975;28;20279;-58
2023/09/22 10:33:29;;;;;;;0.10;0.10;;;;;;;24.96;64.63;97839.28;5133613;28;20695;-58
2023/09/22 10:36:47;;;;;;;0.05;0.05;;;;;;;25.68;65.94;97847.75;5134012;28;20304;-56
2023/09/22 10:39:50;;;;;;;0.05;0.05;;;;;;;26.19;63.40;97851.91;5134001;28;20202;-56
2023/09/22 10:42:42;;;;;;;0.00;0.00;;;;;;;27.13;58.60;97847.56;5132143;28;20196;-57
2023/09/22 10:45:29;;;;;;;0.00;0.00;;;;;;;27.55;51.67;97847.41;5133576;28;20200;-57
2023/09/22 10:48:17;;;;;;;0.10;0.10;;;;;;;27.38;48.59;97845.41;5133541;27;20204;-57
2023/09/22 10:51:06;;;;;;;0.00;0.00;;;;;;;26.49;50.94;97857.34;5136473;27;20549;-56
2023/09/22 10:53:59;;;;;;;0.10;0.10;;;;;;;26.30;49.21;97858.44;5135326;27;20192;-57
2023/09/22 10:56:46;;;;;;;0.03;0.03;;;;;;;25.36;54.19;97874.16;5135659;27;20211;-56
2023/09/22 10:59:35;;;;;;;0.10;0.10;;;;;;;23.83;58.74;97874.34;5137362;27;20189;-56
2023/09/22 11:02:23;;;;;;;0.05;0.05;;;;;;;21.70;70.56;97867.16;5137394;27;20266;-56
2023/09/22 11:05:12;;;;;;;0.10;0.10;;;;;;;23.15;65.02;97873.88;5137226;27;20186;-56
2023/09/22 11:07:58;;;;;;;0.10;0.10;;;;;;;23.54;64.47;97866.72;5137125;27;20213;-56
2023/09/22 11:10:51;;;;;;;0.10;0.10;;;;;;;26.18;56.29;97864.66;5136520;27;20290;-56
2023/09/22 11:13:38;;;;;;;0.10;0.10;;;;;;;26.89;49.34;97856.72;5136007;27;20193;-56
2023/09/22 11:16:25;;;;;;;0.00;0.00;;;;;;;25.10;54.19;97881.53;5137550;27;20201;-56
2023/09/22 11:19:12;;;;;;;0.00;0.00;;;;;;;25.29;55.36;97876.13;5136978;27;20213;-56
2023/09/22 11:21:59;;;;;;;0.00;0.00;;;;;;;25.66;54.60;97868.84;5137150;27;20200;-56
2023/09/22 11:24:46;;;;;;;0.10;0.10;;;;;;;27.85;52.36;97874.47;5136760;27;20710;-56
2023/09/22 11:27:42;;;;;;;0.10;0.10;;;;;;;27.06;52.52;97863.16;5135642;27;20188;-56
2023/09/22 11:30:29;;;;;;;0.10;0.10;;;;;;;29.03;45.98;97872.88;5136847;27;20190;-59
2023/09/22 11:33:16;;;;;;;0.00;0.00;;;;;;;27.32;47.31;97865.41;5136912;27;20239;-58
2023/09/22 11:36:03;;;;;;;0.08;0.08;;;;;;;26.44;48.91;97889.81;5136526;27;20188;-58
2023/09/22 11:38:54;;;;;;;0.00;0.00;;;;;;;27.20;45.11;97874.63;5136374;27;20222;-58
2023/09/22 11:41:41;;;;;;;0.10;0.10;;;;;;;26.06;47.57;97874.66;5135050;27;20201;-58
2023/09/22 11:44:31;;;;;;;0.00;0.00;;;;;;;22.50;59.75;97881.75;5136527;27;20190;-58
2023/09/22 11:47:22;;;;;;;0.10;0.10;;;;;;;22.65;64.13;97868.06;5136515;27;20275;-58
2023/09/22 11:50:21;;;;;;;0.10;0.10;;;;;;;25.85;52.86;97867.78;5136503;27;20235;-58
2023/09/22 11:53:10;;;;;;;0.10;0.10;;;;;;;27.19;45.04;97871.06;5136222;27;20281;-58
2023/09/22 11:55:58;;;;;;;0.00;0.00;;;;;;;26.20;43.67;97856.28;5134907;27;20201;-58
2023/09/22 11:58:45;;;;;;;0.10;0.10;;;;;;;25.50;47.89;97864.03;5136028;27;20216;-58
2023/09/22 12:01:33;;;;;;;0.03;0.03;;;;;;;24.14;52.01;97854.66;5135408;27;20189;-58
2023/09/22 12:04:22;;;;;;;0.10;0.10;;;;;;;25.90;47.91;97875.28;5135822;27;20201;-59
2023/09/22 12:07:09;;;;;;;0.10;0.10;;;;;;;24.28;51.60;97871.66;5135661;27;20197;-56
2023/09/22 12:09:56;;;;;;;0.00;0.00;;;;;;;25.96;46.75;97858.91;5136281;27;20193;-57
2023/09/22 12:12:43;;;;;;;0.10;0.10;;;;;;;27.64;42.81;97851.41;5118960;27;20265;-57
2023/09/22 12:15:31;;;;;;;0.00;0.00;;;;;;;27.60;40.72;97861.09;5135757;27;20201;-57
2023/09/22 12:18:19;;;;;;;0.10;0.10;;;;;;;29.49;38.16;97858.06;5135097;27;20209;-57
2023/09/22 12:21:06;;;;;;;0.00;0.00;;;;;;;30.27;37.08;97853.28;5135612;27;20193;-57
2023/09/22 12:23:53;;;;;;;0.10;0.10;;;;;;;29.77;36.68;97850.78;5119968;27;20221;-57
2023/09/22 12:26:40;;;;;;;0.00;0.00;;;;;;;30.98;35.41;97843.06;5134402;27;20193;-57
2023/09/22 12:29:27;;;;;;;0.00;0.00;;;;;;;30.14;35.26;97840.88;5135359;27;20193;-57
2023/09/22 12:32:15;;;;;;;0.00;0.00;;;;;;;30.48;36.50;97846.13;5135736;27;20196;-57
2023/09/22 12:35:05;;;;;;;0.00;0.00;;;;;;;29.40;37.83;97828.69;5119932;27;20274;-56
2023/09/22 12:37:52;;;;;;;0.00;0.00;;;;;;;28.75;38.34;97833.69;5135241;27;20209;-57
2023/09/22 12:40:39;;;;;;;0.00;0.00;;;;;;;30.92;35.99;97827.69;5134664;27;20209;-57
2023/09/22 12:43:27;;;;;;;0.00;0.00;;;;;;;27.90;39.68;97837.31;5135646;27;20197;-56
2023/09/22 12:46:14;;;;;;;0.00;0.00;;;;;;;27.54;40.64;97827.53;5134457;27;20287;-56
2023/09/22 12:49:01;;;;;;;0.00;0.00;;;;;;;28.86;38.95;97828.41;5135182;27;20185;-56
2023/09/22 12:51:49;;;;;;;0.00;0.00;;;;;;;29.17;39.33;97838.75;5135165;27;20683;-57
2023/09/22 12:54:36;;;;;;;0.00;0.00;;;;;;;29.49;35.58;97830.75;5135332;27;20271;-57
2023/09/22 12:57:23;;;;;;;0.00;0.00;;;;;;;30.80;36.34;97820.75;5131750;27;20213;-57
2023/09/22 13:00:11;;;;;;;0.00;0.00;;;;;;;31.65;33.02;97821.56;5134291;27;20343;-57
2023/09/22 13:03:01;;;;;;;0.00;0.00;;;;;;;32.43;32.44;97820.50;5125182;27;20210;-57
2023/09/22 13:05:48;;;;;;;0.10;0.10;;;;;;;28.73;35.96;97835.00;5114027;28;20199;-57